Time;durP1;ratioP1;P1;durP2;ratioP2;P2;SDS_P1;SDS_P2;PMS_P1;PMS_P2;Temp;Humidity;BMP_temperature;BMP_pressure;BME280_temperature;BME280_humidity;BME280_pressure;Samples;Min_cycle;Max_cycle;Signal;HPM_P1;HPM_P2
2022/01/13 00:00:34;;;;;;;124.83;21.70;;;;;;;2.18;100.00;100158.50;5068981;28;20681;-78
2022/01/13 00:03:01;;;;;;;88.33;18.33;;;;;;;2.13;100.00;100158.16;5069379;28;20606;-78
2022/01/13 00:05:30;;;;;;;87.67;18.73;;;;;;;2.09;100.00;100143.63;5068570;28;20606;-77
2022/01/13 00:07:58;;;;;;;117.50;21.23;;;;;;;2.11;100.00;100146.09;5069213;28;20603;-78
2022/01/13 00:10:26;;;;;;;105.40;21.70;;;;;;;1.95;100.00;100146.78;5070104;28;20598;-77
2022/01/13 00:12:58;;;;;;;115.20;22.77;;;;;;;1.96;100.00;100137.09;5070522;28;20610;-78
2022/01/13 00:15:37;;;;;;;102.07;22.47;;;;;;;1.93;100.00;100137.41;5070675;28;20607;-78
2022/01/13 00:18:10;;;;;;;120.70;22.97;;;;;;;2.04;100.00;100132.69;5067376;28;20668;-77
2022/01/13 00:21:00;;;;;;;118.80;21.23;;;;;;;2.11;100.00;100136.38;5068282;28;20587;-78
2022/01/13 00:23:46;;;;;;;115.23;22.07;;;;;;;2.14;100.00;100136.06;5057916;28;20587;-77
2022/01/13 00:26:18;;;;;;;82.40;19.17;;;;;;;2.15;100.00;100136.91;5054181;28;20619;-77
2022/01/13 00:28:48;;;;;;;92.10;21.30;;;;;;;2.15;100.00;100132.47;5055183;28;20611;-79
2022/01/13 00:31:18;;;;;;;78.03;20.13;;;;;;;1.69;100.00;100135.41;5066243;28;20671;-78
2022/01/13 00:33:46;;;;;;;75.57;18.70;;;;;;;2.03;100.00;100132.88;5065193;28;20731;-78
2022/01/13 00:36:14;;;;;;;118.20;23.10;;;;;;;2.02;100.00;100133.84;5065741;28;20602;-78
2022/01/13 00:38:42;;;;;;;94.03;21.37;;;;;;;2.20;100.00;100131.97;5065842;28;20617;-77
2022/01/13 00:41:11;;;;;;;94.70;20.47;;;;;;;2.19;100.00;100125.06;5064844;28;20606;-78
2022/01/13 00:43:40;;;;;;;94.33;22.40;;;;;;;2.23;100.00;100146.69;5066430;28;20595;-78
2022/01/13 00:46:08;;;;;;;93.63;20.43;;;;;;;2.21;100.00;100141.56;5058310;28;20663;-78
2022/01/13 00:48:35;;;;;;;92.40;21.80;;;;;;;2.13;100.00;100141.50;5065250;28;20617;-77
2022/01/13 00:51:02;;;;;;;85.93;21.40;;;;;;;2.29;100.00;100144.22;5065272;28;20679;-77
2022/01/13 00:53:29;;;;;;;87.70;20.27;;;;;;;2.12;100.00;100138.03;5066355;28;20665;-79
2022/01/13 00:56:00;;;;;;;103.80;23.83;;;;;;;2.12;100.00;100138.03;5065049;28;20619;-78
2022/01/13 00:58:29;;;;;;;97.27;21.47;;;;;;;2.11;100.00;100135.53;5066096;28;20614;-77
2022/01/13 01:01:00;;;;;;;97.77;22.67;;;;;;;2.16;100.00;100147.31;5067908;28;20597;-78
2022/01/13 01:03:28;;;;;;;77.10;21.87;;;;;;;2.14;100.00;100151.88;5066217;28;20629;-78
2022/01/13 01:05:55;;;;;;;95.77;22.07;;;;;;;2.04;100.00;100153.78;5065737;28;21462;-77
2022/01/13 01:08:23;;;;;;;92.00;20.67;;;;;;;2.01;100.00;100161.19;5063857;28;20602;-77
2022/01/13 01:10:53;;;;;;;95.03;21.70;;;;;;;2.07;100.00;100164.00;5063929;28;20610;-77
2022/01/13 01:13:27;;;;;;;98.20;20.57;;;;;;;2.01;100.00;100169.09;5063558;28;20645;-78
2022/01/13 01:15:57;;;;;;;98.47;22.50;;;;;;;1.58;100.00;100170.69;5063738;28;21142;-77
2022/01/13 01:18:33;;;;;;;115.67;22.40;;;;;;;1.66;100.00;100172.59;5064895;28;20622;-78
2022/01/13 01:21:19;;;;;;;147.23;25.50;;;;;;;1.77;100.00;100172.34;5055410;28;20782;-77
2022/01/13 01:24:12;;;;;;;99.67;22.10;;;;;;;1.86;100.00;100167.97;5065954;28;20622;-77
2022/01/13 01:26:42;;;;;;;81.60;23.43;;;;;;;1.98;100.00;100177.31;5064989;28;20617;-78
2022/01/13 01:29:18;;;;;;;81.27;19.27;;;;;;;2.00;100.00;100176.16;5057457;28;20602;-77
2022/01/13 01:31:49;;;;;;;131.70;24.50;;;;;;;2.10;100.00;100181.34;5069941;28;20606;-78
2022/01/13 01:34:29;;;;;;;116.20;22.70;;;;;;;2.12;100.00;100179.38;5067140;28;20654;-77
2022/01/13 01:36:56;;;;;;;98.60;21.90;;;;;;;2.08;100.00;100178.84;5065304;28;20605;-78
2022/01/13 01:39:23;;;;;;;83.70;20.40;;;;;;;2.05;100.00;100181.81;5066555;28;20598;-77
2022/01/13 01:41:52;;;;;;;92.17;19.17;;;;;;;2.04;100.00;100182.78;5066592;28;20972;-77
2022/01/13 01:44:26;;;;;;;86.53;21.40;;;;;;;2.01;100.00;100183.06;5065818;28;20614;-77
2022/01/13 01:46:53;;;;;;;108.20;22.57;;;;;;;2.13;100.00;100179.25;5065422;28;20629;-77
2022/01/13 01:49:22;;;;;;;103.77;22.60;;;;;;;2.11;100.00;100173.28;5065681;28;20606;-78
2022/01/13 01:51:51;;;;;;;95.83;22.67;;;;;;;2.00;100.00;100162.16;5065238;28;21208;-77
2022/01/13 01:54:18;;;;;;;107.57;24.57;;;;;;;2.05;100.00;100167.78;5068036;28;20650;-77
2022/01/13 01:56:46;;;;;;;116.37;20.77;;;;;;;2.01;100.00;100166.47;5067768;28;20610;-77
2022/01/13 01:59:16;;;;;;;116.83;19.27;;;;;;;1.89;100.00;100155.31;5067393;28;20692;-77
2022/01/13 02:01:46;;;;;;;89.50;20.83;;;;;;;1.96;100.00;100153.72;5068843;28;20587;-78
2022/01/13 02:04:13;;;;;;;94.10;20.97;;;;;;;1.95;100.00;100153.91;5067247;28;20688;-77
2022/01/13 02:06:41;;;;;;;106.77;21.87;;;;;;;1.94;100.00;100153.06;5067677;28;20606;-77
2022/01/13 02:09:10;;;;;;;89.43;18.20;;;;;;;1.92;100.00;100151.56;5059439;28;20611;-77
2022/01/13 02:11:43;;;;;;;101.97;23.03;;;;;;;1.95;100.00;100152.06;5071558;28;20606;-77
2022/01/13 02:14:30;;;;;;;90.30;19.60;;;;;;;1.90;100.00;100146.44;5061851;28;20660;-78
2022/01/13 02:17:02;;;;;;;93.03;19.87;;;;;;;1.95;100.00;100144.16;5068317;28;20613;-78
2022/01/13 02:19:30;;;;;;;97.17;20.57;;;;;;;2.01;100.00;100153.28;5068531;28;20606;-78
2022/01/13 02:21:59;;;;;;;107.37;21.43;;;;;;;1.89;100.00;100150.03;5066948;28;20602;-78
2022/01/13 02:24:26;;;;;;;115.00;23.60;;;;;;;1.91;100.00;100157.81;5068879;28;20622;-78
2022/01/13 02:26:53;;;;;;;130.63;22.30;;;;;;;1.88;100.00;100145.78;5066656;28;20636;-78
2022/01/13 02:29:20;;;;;;;124.13;22.57;;;;;;;1.90;100.00;100143.81;5067095;28;20602;-78
2022/01/13 02:31:46;;;;;;;120.97;20.93;;;;;;;1.90;100.00;100150.88;5069732;28;20617;-78
2022/01/13 02:34:13;;;;;;;83.30;19.17;;;;;;;1.96;100.00;100148.47;5070266;28;20642;-78
2022/01/13 02:36:42;;;;;;;108.63;23.27;;;;;;;2.02;100.00;100152.28;5068914;28;20614;-78
2022/01/13 02:39:10;;;;;;;103.13;19.83;;;;;;;1.93;100.00;100154.03;5058648;28;20606;-78
2022/01/13 02:41:36;;;;;;;103.43;23.33;;;;;;;1.89;100.00;100152.69;5066773;28;20729;-78
2022/01/13 02:44:11;;;;;;;107.40;21.27;;;;;;;1.41;100.00;100154.91;5067959;28;20618;-78
2022/01/13 02:46:56;;;;;;;116.60;23.20;;;;;;;1.05;100.00;100154.84;5067885;28;20624;-78
2022/01/13 02:49:24;;;;;;;106.47;21.67;;;;;;;1.17;100.00;100146.75;5060350;28;20687;-78
2022/01/13 02:51:53;;;;;;;110.73;22.33;;;;;;;1.04;100.00;100150.56;5066613;28;21159;-78
2022/01/13 02:54:23;;;;;;;93.37;20.67;;;;;;;1.16;100.00;100155.63;5068415;28;20653;-78
2022/01/13 02:56:50;;;;;;;141.67;24.00;;;;;;;1.30;100.00;100139.31;5067997;28;20606;-78
2022/01/13 02:59:16;;;;;;;125.03;24.77;;;;;;;1.46;100.00;100139.47;5067888;28;20606;-78
2022/01/13 03:01:43;;;;;;;90.10;21.90;;;;;;;1.68;100.00;100140.81;5068667;28;20587;-78
2022/01/13 03:04:12;;;;;;;90.40;20.70;;;;;;;1.73;100.00;100138.56;5068718;28;20656;-78
2022/01/13 03:06:41;;;;;;;119.73;23.30;;;;;;;1.79;100.00;100138.78;5066755;28;20614;-78
2022/01/13 03:09:10;;;;;;;122.70;23.30;;;;;;;1.75;100.00;100128.69;5060386;28;20602;-78
2022/01/13 03:11:38;;;;;;;92.73;21.10;;;;;;;1.89;100.00;100134.22;5067489;28;20628;-78
2022/01/13 03:14:08;;;;;;;104.10;21.67;;;;;;;1.99;100.00;100140.25;5067051;28;20610;-78
2022/01/13 03:16:36;;;;;;;108.97;22.47;;;;;;;1.99;100.00;100132.34;5068330;28;20633;-78
2022/01/13 03:19:02;;;;;;;124.40;23.20;;;;;;;2.04;100.00;100130.06;5067198;28;20622;-78
2022/01/13 03:21:29;;;;;;;99.10;24.50;;;;;;;2.11;100.00;100133.75;5068622;28;20598;-78
2022/01/13 03:23:56;;;;;;;100.33;22.37;;;;;;;2.24;100.00;100135.13;5062669;28;20598;-78
2022/01/13 03:26:24;;;;;;;94.90;20.70;;;;;;;2.06;100.00;100141.28;5067199;28;20633;-78
2022/01/13 03:29:03;;;;;;;82.20;22.27;;;;;;;1.71;100.00;100133.44;5068328;28;20606;-78
2022/01/13 03:31:30;;;;;;;86.97;20.40;;;;;;;1.45;100.00;100137.81;5068186;28;20618;-78
2022/01/13 03:33:57;;;;;;;111.70;23.37;;;;;;;1.36;100.00;100134.25;5067844;28;20665;-78
2022/01/13 03:36:24;;;;;;;118.57;22.90;;;;;;;1.56;100.00;100129.69;5067072;28;20610;-78
2022/01/13 03:38:51;;;;;;;119.87;22.93;;;;;;;1.57;100.00;100134.00;5066730;28;20609;-78
2022/01/13 03:41:20;;;;;;;118.43;20.77;;;;;;;1.36;100.00;100134.25;5066853;28;20629;-78
2022/01/13 03:43:47;;;;;;;114.23;22.53;;;;;;;1.37;100.00;100135.09;5065844;28;20614;-78
2022/01/13 03:46:15;;;;;;;133.30;21.93;;;;;;;1.30;100.00;100126.16;5065916;28;21094;-78
2022/01/13 03:48:42;;;;;;;107.17;20.80;;;;;;;1.31;100.00;100119.91;5065771;28;20590;-78
2022/01/13 03:51:09;;;;;;;97.70;19.53;;;;;;;1.22;100.00;100126.06;5065494;28;20606;-78
2022/01/13 03:54:45;;;;;;;123.10;23.20;;;;;;;1.25;100.00;100131.03;5066504;28;20617;-78
2022/01/13 03:57:51;;;;;;;136.80;24.37;;;;;;;0.94;100.00;100149.78;5059066;28;20602;-77
2022/01/13 04:00:55;;;;;;;123.00;24.50;;;;;;;1.01;100.00;100150.03;5058794;28;20599;-79
2022/01/13 04:03:23;;;;;;;100.97;21.13;;;;;;;0.86;100.00;100156.75;5060759;28;20609;-76
2022/01/13 04:06:08;;;;;;;109.30;22.97;;;;;;;0.98;100.00;100161.69;5065769;28;20618;-75
2022/01/13 04:08:35;;;;;;;129.07;26.03;;;;;;;0.99;100.00;100160.69;5065762;28;20614;-77
2022/01/13 04:11:18;;;;;;;106.70;21.93;;;;;;;0.73;100.00;100162.34;5067059;28;20615;-78
2022/01/13 04:13:50;;;;;;;125.87;22.37;;;;;;;0.84;100.00;100163.94;5068018;28;20613;-77
2022/01/13 04:16:18;;;;;;;98.30;21.07;;;;;;;1.03;100.00;100151.53;5067360;28;20706;-77
2022/01/13 04:18:48;;;;;;;95.87;19.60;;;;;;;0.87;100.00;100151.34;5066902;28;20603;-77
2022/01/13 04:21:17;;;;;;;122.80;21.73;;;;;;;0.55;100.00;100166.72;5066830;28;20603;-78
2022/01/13 04:23:45;;;;;;;110.40;23.13;;;;;;;0.66;100.00;100145.50;5062688;28;20614;-78
2022/01/13 04:26:15;;;;;;;106.77;21.57;;;;;;;0.70;100.00;100154.75;5067169;28;20603;-78
2022/01/13 04:28:42;;;;;;;109.50;22.13;;;;;;;0.86;100.00;100144.44;5068395;28;20611;-77
2022/01/13 04:31:08;;;;;;;83.87;18.63;;;;;;;0.81;100.00;100148.47;5066013;28;20613;-77
2022/01/13 04:33:37;;;;;;;98.80;22.70;;;;;;;0.69;100.00;100153.09;5067839;28;20622;-78
2022/01/13 04:36:07;;;;;;;110.57;23.20;;;;;;;0.90;100.00;100151.03;5067575;28;20646;-77
2022/01/13 04:38:34;;;;;;;127.87;24.07;;;;;;;1.13;100.00;100145.38;5066682;28;20621;-77
2022/01/13 04:41:02;;;;;;;142.73;26.97;;;;;;;1.36;100.00;100154.53;5066222;28;20598;-76
2022/01/13 04:43:32;;;;;;;118.50;25.10;;;;;;;1.44;100.00;100154.59;5066977;28;20626;-77
2022/01/13 04:45:59;;;;;;;76.50;20.20;;;;;;;1.50;100.00;100160.09;5065610;28;20642;-78
2022/01/13 04:48:26;;;;;;;101.57;23.70;;;;;;;1.50;100.00;100161.91;5065419;28;20613;-77
2022/01/13 04:50:52;;;;;;;93.10;21.90;;;;;;;1.60;100.00;100160.03;5065204;28;20614;-77
2022/01/13 04:53:21;;;;;;;94.00;23.57;;;;;;;1.76;100.00;100160.16;5065571;28;20602;-77
2022/01/13 04:55:52;;;;;;;111.57;20.37;;;;;;;1.64;100.00;100167.44;5065248;28;20741;-77
2022/01/13 04:58:21;;;;;;;87.00;19.20;;;;;;;1.66;100.00;100169.94;5065516;28;20625;-77
2022/01/13 05:00:49;;;;;;;86.43;21.33;;;;;;;1.64;100.00;100158.72;5065280;28;20630;-77
2022/01/13 05:03:16;;;;;;;105.37;23.33;;;;;;;1.78;100.00;100155.56;5066672;28;20595;-77
2022/01/13 05:05:42;;;;;;;87.37;21.20;;;;;;;1.88;100.00;100164.22;5066208;28;20668;-77
2022/01/13 05:08:09;;;;;;;115.63;22.00;;;;;;;1.89;100.00;100171.13;5065124;28;20610;-77
2022/01/13 05:10:37;;;;;;;116.27;21.43;;;;;;;1.98;100.00;100172.84;5064742;28;20608;-77
2022/01/13 05:13:08;;;;;;;100.80;21.83;;;;;;;2.06;100.00;100172.91;5064454;28;21069;-77
2022/01/13 05:15:36;;;;;;;99.83;21.37;;;;;;;2.00;100.00;100170.06;5064330;28;20642;-77
2022/01/13 05:18:13;;;;;;;98.10;21.70;;;;;;;2.11;100.00;100175.91;5064303;28;20611;-77
2022/01/13 05:20:42;;;;;;;115.73;26.50;;;;;;;1.95;100.00;100175.78;5064369;28;20622;-77
2022/01/13 05:23:11;;;;;;;90.33;22.30;;;;;;;1.65;100.00;100176.19;5052840;28;20617;-77
2022/01/13 05:25:40;;;;;;;106.40;23.77;;;;;;;1.71;100.00;100178.22;5063815;28;20706;-77
2022/01/13 05:28:07;;;;;;;81.67;21.67;;;;;;;1.67;100.00;100174.25;5056823;28;20611;-77
2022/01/13 05:30:34;;;;;;;148.33;24.60;;;;;;;1.52;100.00;100171.28;5065456;28;20598;-77
2022/01/13 05:33:00;;;;;;;91.90;21.70;;;;;;;1.43;100.00;100187.16;5064008;28;21440;-77
2022/01/13 05:35:28;;;;;;;77.73;21.83;;;;;;;1.40;100.00;100192.72;5065373;28;21487;-77
2022/01/13 05:37:54;;;;;;;101.60;24.30;;;;;;;1.22;100.00;100189.25;5065673;28;20632;-77
2022/01/13 05:40:22;;;;;;;113.60;22.13;;;;;;;1.25;100.00;100188.94;5064127;28;20625;-77
2022/01/13 05:42:51;;;;;;;75.57;22.37;;;;;;;1.08;100.00;100188.75;5065110;28;20622;-77
2022/01/13 05:45:19;;;;;;;83.33;22.70;;;;;;;0.99;100.00;100194.91;5064470;28;20595;-77
2022/01/13 05:47:48;;;;;;;111.13;21.53;;;;;;;1.12;100.00;100193.72;5064444;28;20595;-77
2022/01/13 05:50:19;;;;;;;69.13;21.00;;;;;;;1.26;100.00;100194.06;5064372;28;20607;-77
2022/01/13 05:52:46;;;;;;;113.17;23.73;;;;;;;1.27;100.00;100192.28;5065005;28;20619;-77
2022/01/13 05:55:13;;;;;;;96.13;23.83;;;;;;;1.27;100.00;100198.34;5064239;28;20670;-77
2022/01/13 05:57:40;;;;;;;153.27;24.90;;;;;;;1.39;100.00;100201.63;5065100;28;20676;-76
2022/01/13 06:00:11;;;;;;;128.37;24.37;;;;;;;1.50;100.00;100198.75;5056949;28;20591;-77
2022/01/13 06:02:39;;;;;;;86.30;22.00;;;;;;;1.59;100.00;100203.97;5063771;28;20621;-76
2022/01/13 06:05:07;;;;;;;116.07;24.00;;;;;;;1.74;100.00;100201.63;5063601;28;20666;-77
2022/01/13 06:07:34;;;;;;;76.80;20.83;;;;;;;1.74;100.00;100206.88;5064791;28;20602;-77
2022/01/13 06:10:01;;;;;;;116.60;20.80;;;;;;;1.41;100.00;100189.13;5063711;28;20602;-78
2022/01/13 06:12:34;;;;;;;90.57;22.40;;;;;;;1.21;100.00;100195.50;5063981;28;20646;-77
2022/01/13 06:15:01;;;;;;;87.80;22.37;;;;;;;1.06;100.00;100195.97;5063764;28;20602;-77
2022/01/13 06:17:30;;;;;;;99.10;23.07;;;;;;;0.94;100.00;100191.88;5065002;28;20606;-77
2022/01/13 06:19:58;;;;;;;97.13;21.63;;;;;;;0.93;100.00;100200.75;5064781;28;20621;-77
2022/01/13 06:22:25;;;;;;;112.60;24.00;;;;;;;0.84;100.00;100196.34;5063419;28;20607;-76
2022/01/13 06:24:53;;;;;;;77.70;19.77;;;;;;;0.90;100.00;100190.50;5064576;28;20602;-78
2022/01/13 06:27:22;;;;;;;116.93;22.97;;;;;;;0.97;100.00;100191.59;5065089;28;20600;-77
2022/01/13 06:29:51;;;;;;;104.90;23.33;;;;;;;0.75;100.00;100196.38;5064784;28;20614;-77
2022/01/13 06:32:18;;;;;;;128.77;25.20;;;;;;;0.89;100.00;100188.88;5064749;28;20633;-77
2022/01/13 06:34:46;;;;;;;105.20;22.73;;;;;;;0.61;100.00;100188.97;5063588;28;20632;-77
2022/01/13 06:37:13;;;;;;;101.90;23.07;;;;;;;0.49;100.00;100191.81;5064288;28;20650;-77
2022/01/13 06:39:40;;;;;;;82.60;21.50;;;;;;;0.52;100.00;100196.78;5068890;28;20610;-77
2022/01/13 06:42:08;;;;;;;132.87;27.30;;;;;;;0.46;100.00;100191.25;5059340;28;20614;-77
2022/01/13 06:44:34;;;;;;;98.53;23.10;;;;;;;0.52;100.00;100203.81;5067314;28;20594;-76
2022/01/13 06:47:01;;;;;;;106.83;24.20;;;;;;;0.27;100.00;100205.28;5067379;28;21574;-77
2022/01/13 06:49:28;;;;;;;118.10;23.57;;;;;;;0.43;100.00;100196.78;5067458;28;20607;-77
2022/01/13 06:51:56;;;;;;;106.47;22.13;;;;;;;0.74;100.00;100200.84;5066916;28;20618;-76
2022/01/13 06:54:23;;;;;;;134.03;25.80;;;;;;;0.86;100.00;100204.94;5067961;28;21219;-77
2022/01/13 06:56:50;;;;;;;107.73;24.30;;;;;;;1.53;100.00;100211.63;5066857;28;20658;-77
2022/01/13 06:59:18;;;;;;;103.07;23.60;;;;;;;1.62;100.00;100205.47;5066700;28;20633;-77
2022/01/13 07:01:45;;;;;;;91.13;23.30;;;;;;;1.56;100.00;100206.06;5066815;28;20607;-77
2022/01/13 07:04:13;;;;;;;156.10;24.73;;;;;;;1.47;100.00;100212.22;5068398;28;20598;-77
2022/01/13 07:06:42;;;;;;;132.83;24.47;;;;;;;1.04;100.00;100221.63;5066936;28;20652;-77
2022/01/13 07:09:12;;;;;;;91.47;23.10;;;;;;;1.28;100.00;100225.50;5058361;28;20641;-77
2022/01/13 07:11:40;;;;;;;133.17;26.20;;;;;;;1.56;100.00;100229.75;5066135;28;20610;-77
2022/01/13 07:14:07;;;;;;;112.23;23.43;;;;;;;1.77;100.00;100237.38;5058868;28;20602;-77
2022/01/13 07:16:34;;;;;;;106.57;22.43;;;;;;;1.89;100.00;100242.28;5066037;28;20642;-77
2022/01/13 07:19:03;;;;;;;109.63;24.70;;;;;;;1.92;100.00;100244.59;5066090;28;21284;-77
2022/01/13 07:21:30;;;;;;;98.83;21.57;;;;;;;2.01;100.00;100246.34;5066193;28;20590;-77
2022/01/13 07:23:57;;;;;;;130.43;25.70;;;;;;;2.02;100.00;100234.81;5066877;28;20603;-77
2022/01/13 07:26:25;;;;;;;105.77;21.63;;;;;;;2.10;100.00;100249.88;5066110;28;21013;-77
2022/01/13 07:28:52;;;;;;;106.63;24.80;;;;;;;2.09;100.00;100256.97;5067550;28;20637;-77
2022/01/13 07:31:19;;;;;;;126.10;23.47;;;;;;;2.03;100.00;100260.22;5067457;28;20644;-78
2022/01/13 07:33:47;;;;;;;90.40;22.70;;;;;;;2.17;100.00;100258.81;5066090;28;21425;-78
2022/01/13 07:36:14;;;;;;;83.30;20.90;;;;;;;2.14;100.00;100264.41;5066066;28;21572;-78
2022/01/13 07:38:41;;;;;;;158.17;26.17;;;;;;;2.12;100.00;100255.81;5067468;28;20628;-77
2022/01/13 07:41:08;;;;;;;115.30;22.43;;;;;;;2.13;100.00;100253.06;5054116;28;20611;-78
2022/01/13 07:43:36;;;;;;;74.97;18.30;;;;;;;2.16;100.00;100249.28;5062970;28;20600;-78
2022/01/13 07:46:03;;;;;;;98.77;24.00;;;;;;;2.30;100.00;100245.25;5065832;28;20600;-76
2022/01/13 07:48:29;;;;;;;102.10;23.10;;;;;;;2.34;100.00;100252.72;5065247;28;20610;-77
2022/01/13 07:50:56;;;;;;;86.60;22.73;;;;;;;2.27;100.00;100256.94;5065424;28;20610;-77
2022/01/13 07:53:23;;;;;;;122.17;24.23;;;;;;;2.38;100.00;100264.63;5061856;28;20598;-77
2022/01/13 07:55:50;;;;;;;97.53;24.33;;;;;;;2.12;100.00;100269.00;5065590;28;20696;-77
2022/01/13 07:58:17;;;;;;;102.47;24.70;;;;;;;2.01;100.00;100266.63;5067682;28;20610;-77
2022/01/13 08:00:45;;;;;;;101.93;22.00;;;;;;;2.18;100.00;100269.22;5070074;28;20670;-76
2022/01/13 08:03:12;;;;;;;133.97;25.07;;;;;;;2.31;100.00;100283.84;5066694;28;20683;-77
2022/01/13 08:05:39;;;;;;;123.70;25.13;;;;;;;2.39;100.00;100286.53;5067135;28;20602;-77
2022/01/13 08:08:06;;;;;;;136.63;25.50;;;;;;;2.42;100.00;100288.84;5066446;28;20594;-76
2022/01/13 08:10:33;;;;;;;126.43;25.30;;;;;;;2.22;100.00;100285.59;5066773;28;20610;-76
2022/01/13 08:13:00;;;;;;;106.67;22.63;;;;;;;2.20;100.00;100276.16;5067261;28;20622;-78
2022/01/13 08:15:28;;;;;;;83.70;23.97;;;;;;;2.33;100.00;100287.13;5065879;28;20625;-77
2022/01/13 08:20:40;;;;;;;141.50;26.97;;;;;;;2.37;100.00;100288.50;5067234;28;20687;-77
2022/01/13 08:23:09;;;;;;;97.57;24.17;;;;;;;2.50;100.00;100273.94;5054904;28;20602;-77
2022/01/13 08:25:35;;;;;;;99.37;23.10;;;;;;;2.40;100.00;100269.72;5066649;28;20717;-77
2022/01/13 08:28:02;;;;;;;104.37;25.57;;;;;;;2.44;100.00;100273.72;5067329;28;20613;-77
2022/01/13 08:30:29;;;;;;;105.23;24.93;;;;;;;2.46;100.00;100277.03;5065371;28;20598;-78
2022/01/13 08:32:57;;;;;;;132.07;24.37;;;;;;;2.35;100.00;100267.56;5065502;28;20614;-77
2022/01/13 08:35:24;;;;;;;112.63;26.60;;;;;;;2.49;100.00;100277.56;5066302;28;20606;-77
2022/01/13 08:37:50;;;;;;;120.03;25.57;;;;;;;2.62;100.00;100271.88;5065214;28;21276;-77
2022/01/13 08:40:17;;;;;;;145.10;29.00;;;;;;;2.44;100.00;100271.91;5064776;28;20606;-77
2022/01/13 08:42:44;;;;;;;121.90;25.83;;;;;;;2.31;100.00;100273.28;5065310;28;20618;-77
2022/01/13 08:45:13;;;;;;;106.27;25.53;;;;;;;2.30;100.00;100274.25;5065943;28;20629;-77
2022/01/13 08:47:40;;;;;;;93.83;20.93;;;;;;;2.44;100.00;100279.00;5065236;28;20618;-78
2022/01/13 08:50:09;;;;;;;100.00;24.57;;;;;;;2.33;100.00;100287.13;5056456;28;20606;-78
2022/01/13 08:52:38;;;;;;;146.27;30.13;;;;;;;2.46;100.00;100284.94;5065069;28;21245;-77
2022/01/13 08:55:06;;;;;;;78.40;23.07;;;;;;;2.38;100.00;100284.88;5064880;28;20705;-77
2022/01/13 08:57:33;;;;;;;103.80;23.43;;;;;;;2.38;100.00;100287.53;5066452;28;20672;-78
2022/01/13 09:00:00;;;;;;;99.10;22.80;;;;;;;2.29;100.00;100286.59;5065872;28;20599;-77
2022/01/13 09:02:30;;;;;;;104.83;24.87;;;;;;;2.31;100.00;100289.09;5065316;28;20636;-77
2022/01/13 09:04:57;;;;;;;103.10;23.33;;;;;;;2.47;100.00;100297.16;5065925;28;20598;-78
2022/01/13 09:07:25;;;;;;;124.63;25.60;;;;;;;2.37;100.00;100293.78;5064479;28;20616;-78
2022/01/13 09:09:51;;;;;;;113.77;24.20;;;;;;;2.51;100.00;100288.75;5064385;28;20614;-77
2022/01/13 09:12:18;;;;;;;105.70;23.17;;;;;;;2.33;100.00;100292.41;5064844;28;20595;-78
2022/01/13 09:14:45;;;;;;;116.97;25.33;;;;;;;2.53;100.00;100299.19;5064424;28;20650;-77
2022/01/13 09:17:19;;;;;;;104.93;24.17;;;;;;;2.28;100.00;100292.03;5064653;28;20665;-77
2022/01/13 09:19:46;;;;;;;84.10;21.37;;;;;;;2.43;100.00;100283.44;5065569;28;20606;-78
2022/01/13 09:22:13;;;;;;;81.47;22.87;;;;;;;2.61;100.00;100291.31;5064468;28;20660;-78
2022/01/13 09:24:42;;;;;;;97.20;21.80;;;;;;;2.54;100.00;100287.63;5066574;28;20601;-78
2022/01/13 09:27:09;;;;;;;107.47;22.20;;;;;;;2.49;100.00;100292.53;5057416;28;20614;-77
2022/01/13 09:29:36;;;;;;;141.93;23.47;;;;;;;2.46;100.00;100298.13;5064315;28;20659;-78
2022/01/13 09:32:03;;;;;;;107.57;25.70;;;;;;;2.54;100.00;100292.91;5065270;28;20622;-78
2022/01/13 09:34:30;;;;;;;106.27;22.40;;;;;;;2.42;100.00;100288.84;5065147;28;20595;-78
2022/01/13 09:36:57;;;;;;;107.20;23.50;;;;;;;2.59;100.00;100288.00;5063420;28;20646;-78
2022/01/13 09:39:24;;;;;;;103.23;21.40;;;;;;;2.48;100.00;100285.59;5063486;28;20603;-78
2022/01/13 09:41:53;;;;;;;110.80;19.83;;;;;;;2.56;100.00;100290.97;5065217;28;20661;-78
2022/01/13 09:44:20;;;;;;;119.70;22.70;;;;;;;2.54;100.00;100300.81;5064781;28;20621;-78
2022/01/13 09:46:47;;;;;;;119.83;21.80;;;;;;;2.50;100.00;100295.03;5072066;28;20628;-77
2022/01/13 09:49:14;;;;;;;111.47;24.30;;;;;;;2.51;100.00;100291.41;5064180;28;20648;-78
2022/01/13 09:51:45;;;;;;;110.30;22.17;;;;;;;2.60;100.00;100289.69;5064149;28;20628;-77
2022/01/13 09:54:12;;;;;;;97.00;20.07;;;;;;;2.49;100.00;100282.81;5064529;28;20607;-78
2022/01/13 09:56:39;;;;;;;121.10;22.00;;;;;;;2.43;100.00;100287.88;5065238;28;20654;-78
2022/01/13 09:59:08;;;;;;;103.50;21.57;;;;;;;2.47;100.00;100284.81;5064000;28;20654;-78
2022/01/13 10:01:34;;;;;;;82.17;20.37;;;;;;;2.70;100.00;100279.84;5063730;28;21348;-79
2022/01/13 10:04:01;;;;;;;104.10;21.30;;;;;;;2.57;100.00;100284.69;5063415;28;20701;-77
2022/01/13 10:06:28;;;;;;;117.33;22.37;;;;;;;2.54;100.00;100285.00;5064411;28;20610;-78
2022/01/13 10:08:57;;;;;;;123.03;23.47;;;;;;;2.67;100.00;100283.63;5063296;28;20597;-78
2022/01/13 10:11:27;;;;;;;106.53;19.97;;;;;;;2.50;100.00;100289.78;5064475;28;20603;-78
2022/01/13 10:14:15;;;;;;;93.90;19.03;;;;;;;2.72;100.00;100285.81;5066676;28;20618;-77
2022/01/13 10:16:47;;;;;;;143.50;24.40;;;;;;;2.56;100.00;100283.88;5068187;28;20744;-77
2022/01/13 10:19:32;;;;;;;82.07;17.60;;;;;;;2.78;100.00;100282.53;5068039;28;20610;-78
2022/01/13 10:22:01;;;;;;;94.43;19.23;;;;;;;2.52;100.00;100273.78;5067085;28;21124;-78
2022/01/13 10:24:30;;;;;;;92.60;20.23;;;;;;;2.62;100.00;100271.88;5062688;28;20629;-78
2022/01/13 10:27:01;;;;;;;133.00;22.30;;;;;;;2.79;100.00;100273.63;5066859;28;20629;-78
2022/01/13 10:29:44;;;;;;;114.47;17.80;;;;;;;2.86;100.00;100276.47;5068902;28;20748;-78
2022/01/13 10:32:13;;;;;;;97.83;18.93;;;;;;;2.74;100.00;100275.91;5060715;28;20590;-78
2022/01/13 10:34:41;;;;;;;110.70;19.70;;;;;;;2.75;100.00;100284.66;5067184;28;20694;-78
2022/01/13 10:37:12;;;;;;;100.07;18.97;;;;;;;2.58;100.00;100281.91;5060399;28;20650;-78
2022/01/13 10:39:57;;;;;;;87.83;17.70;;;;;;;2.79;100.00;100278.91;5068119;28;20927;-78
2022/01/13 10:43:12;;;;;;;83.27;18.53;;;;;;;2.96;100.00;100280.66;5063211;28;20618;-79
2022/01/13 10:45:49;;;;;;;95.70;18.53;;;;;;;2.87;100.00;100276.34;5051212;28;20622;-77
2022/01/13 10:48:20;;;;;;;81.03;15.93;;;;;;;2.76;100.00;100284.50;5063100;28;20606;-78
2022/01/13 10:50:50;;;;;;;113.43;19.97;;;;;;;2.72;100.00;100273.41;5067418;28;20626;-78
2022/01/13 10:53:20;;;;;;;87.23;16.37;;;;;;;2.65;100.00;100266.28;5069959;28;20614;-78
2022/01/13 10:55:50;;;;;;;95.87;18.60;;;;;;;2.65;100.00;100255.75;5067885;28;21112;-78
2022/01/13 10:58:19;;;;;;;86.27;16.30;;;;;;;2.59;100.00;100272.19;5067244;28;20716;-78
2022/01/13 11:00:50;;;;;;;91.87;17.50;;;;;;;2.66;100.00;100267.97;5067812;28;20610;-78
2022/01/13 11:03:18;;;;;;;96.00;17.37;;;;;;;2.62;100.00;100267.44;5069771;28;20645;-78
2022/01/13 11:05:48;;;;;;;85.27;17.37;;;;;;;2.61;100.00;100272.84;5067607;28;20645;-78
2022/01/13 11:08:22;;;;;;;66.17;15.30;;;;;;;2.85;100.00;100257.16;5068677;28;20606;-78
2022/01/13 11:10:50;;;;;;;99.57;18.90;;;;;;;2.90;100.00;100267.25;5069271;28;20602;-78
2022/01/13 11:13:18;;;;;;;80.80;17.00;;;;;;;2.89;100.00;100260.31;5067947;28;20636;-78
2022/01/13 11:15:51;;;;;;;101.47;18.87;;;;;;;2.60;100.00;100252.75;5068057;28;20606;-78
2022/01/13 11:18:19;;;;;;;99.37;21.50;;;;;;;2.53;100.00;100256.97;5068697;28;20648;-78